Terminal Aerodrome Forecast
Issued by NWS Billings, MT

Home | Current Version | Previous Version | Text Only | Print | Product List | Glossary Off
Versions: 1 2 3 4 5 6 7 8 9 10 11 12 13 14 15 16 17 18

000
FTUS45 KBYZ 012216 AAC
TAFMLS
TAF AMD
KMLS 012216Z 0122/0218 15004KT P6SM SCT025 OVC080
      TEMPO 0122/0202 BKN025
     FM020900 27006KT P6SM SCT030 BKN050
     FM021200 27008KT P6SM -SN BKN002 OVC004=

USA.gov is the U.S. government's official web portal to all federal, state and local government web resources and services.